createdAt,value
2018-05-25T00:00:23.203Z,99.00
2018-05-25T00:02:51.256Z,98.80
2018-05-25T00:05:19.736Z,98.80
2018-05-25T00:07:47.837Z,98.80
2018-05-25T00:10:15.894Z,98.90
2018-05-25T00:12:43.965Z,98.80
2018-05-25T00:15:12.029Z,98.50
2018-05-25T00:17:40.093Z,98.50
2018-05-25T00:20:08.599Z,98.90
2018-05-25T00:22:36.677Z,98.60
2018-05-25T00:25:04.811Z,98.70
2018-05-25T00:27:32.884Z,98.80
2018-05-25T00:30:00.949Z,98.70
2018-05-25T00:32:29.025Z,98.80
2018-05-25T00:34:57.117Z,98.80
2018-05-25T00:37:25.204Z,98.90
2018-05-25T00:39:54.189Z,98.90
2018-05-25T00:42:22.301Z,98.90
2018-05-25T00:44:51.125Z,98.60
2018-05-25T00:47:19.216Z,98.60
2018-05-25T00:49:47.347Z,98.70
2018-05-25T00:52:16.152Z,98.70
2018-05-25T00:54:44.337Z,98.70
2018-05-25T00:57:12.409Z,98.50
2018-05-25T00:59:40.492Z,98.50
2018-05-25T01:02:08.646Z,98.70
2018-05-25T01:04:36.932Z,98.70
2018-05-25T01:07:04.993Z,98.70
2018-05-25T01:09:33.094Z,98.70
2018-05-25T01:12:01.481Z,98.70
2018-05-25T01:14:29.553Z,98.70
2018-05-25T01:16:57.625Z,98.80
2018-05-25T01:19:25.717Z,98.80
2018-05-25T01:21:54.548Z,98.80
2018-05-25T01:24:22.644Z,98.80
2018-05-25T01:26:50.745Z,98.80
2018-05-25T01:29:18.784Z,98.80
2018-05-25T01:31:46.840Z,98.70
2018-05-25T01:34:14.917Z,98.70
2018-05-25T01:36:43.001Z,98.70
2018-05-25T01:39:11.085Z,98.70
2018-05-25T01:41:39.465Z,98.70
2018-05-25T01:44:07.730Z,98.70
2018-05-25T01:46:35.815Z,98.80
2018-05-25T01:49:04.201Z,98.90
2018-05-25T01:51:32.277Z,98.80
2018-05-25T01:54:00.352Z,98.60
2018-05-25T01:56:28.921Z,99.30
2018-05-25T01:58:57.000Z,99.20
2018-05-25T02:01:25.073Z,99.20
2018-05-25T02:03:53.409Z,99.20
2018-05-25T02:06:21.496Z,99.50
2018-05-25T02:08:49.553Z,99.20
2018-05-25T02:11:17.857Z,99.20
2018-05-25T02:13:45.944Z,99.20
2018-05-25T02:16:14.016Z,99.30
2018-05-25T02:18:43.214Z,99.40
2018-05-25T02:21:11.261Z,99.40
2018-05-25T02:23:39.341Z,99.40
2018-05-25T02:26:07.701Z,99.40
2018-05-25T02:28:35.796Z,99.30
2018-05-25T02:31:04.653Z,99.30
2018-05-25T02:33:32.724Z,99.10
2018-05-25T02:36:00.808Z,99.10
2018-05-25T02:38:28.880Z,99.10
2018-05-25T02:40:56.974Z,99.00
2018-05-25T02:43:25.053Z,99.00
2018-05-25T02:45:53.348Z,99.10
2018-05-25T02:48:22.192Z,99.10
2018-05-25T02:50:50.253Z,99.10
2018-05-25T02:53:18.629Z,99.10
2018-05-25T02:55:46.729Z,99.00
2018-05-25T02:58:14.780Z,99.00
2018-05-25T03:00:43.177Z,99.00
2018-05-25T03:03:11.234Z,99.00
2018-05-25T03:05:39.293Z,99.00
2018-05-25T03:08:07.406Z,99.10
2018-05-25T03:10:35.449Z,99.00
2018-05-25T03:13:03.509Z,99.10
2018-05-25T03:15:31.917Z,99.20
2018-05-25T03:17:59.957Z,99.20
2018-05-25T03:20:28.053Z,99.20
2018-05-25T03:22:57.022Z,99.20
2018-05-25T03:25:25.092Z,99.30
2018-05-25T03:27:53.161Z,99.30
2018-05-25T03:30:21.473Z,99.30
2018-05-25T03:32:49.788Z,99.20
2018-05-25T03:35:17.820Z,99.40
2018-05-25T03:37:46.064Z,99.10
2018-05-25T03:40:14.161Z,99.10
2018-05-25T03:42:42.216Z,99.10
2018-05-25T03:45:10.296Z,99.20
2018-05-25T03:47:38.390Z,99.20
2018-05-25T03:50:06.460Z,99.20
2018-05-25T03:52:34.801Z,99.10
2018-05-25T03:55:02.868Z,99.20
2018-05-25T03:57:30.929Z,99.20
2018-05-25T03:59:59.053Z,99.30
2018-05-25T04:02:27.097Z,99.20
2018-05-25T04:04:55.184Z,99.30
2018-05-25T04:07:23.281Z,99.30
2018-05-25T04:09:52.109Z,99.40
2018-05-25T04:12:20.214Z,99.40
2018-05-25T04:14:48.302Z,99.40
2018-05-25T04:17:16.373Z,99.40
2018-05-25T04:19:45.353Z,99.60
2018-05-25T04:22:13.428Z,99.60
2018-05-25T04:24:41.497Z,99.60
2018-05-25T04:27:09.785Z,99.60
2018-05-25T04:29:38.621Z,99.80
2018-05-25T04:32:06.700Z,99.50
2018-05-25T04:34:35.101Z,99.40
2018-05-25T04:37:03.165Z,99.30
2018-05-25T04:39:31.228Z,99.30
2018-05-25T04:41:59.628Z,99.30
2018-05-25T04:44:27.717Z,99.30
2018-05-25T04:46:55.788Z,99.10
2018-05-25T04:49:23.910Z,99.00
2018-05-25T04:51:51.957Z,99.00
2018-05-25T04:54:20.053Z,98.90
2018-05-25T04:56:48.137Z,99.00
2018-05-25T04:59:16.249Z,99.00
2018-05-25T05:01:44.288Z,98.90
2018-05-25T05:04:13.180Z,98.80
2018-05-25T05:06:41.281Z,98.80
2018-05-25T05:09:09.332Z,98.90
2018-05-25T05:11:37.424Z,98.90
2018-05-25T05:14:06.290Z,98.70
2018-05-25T05:16:35.717Z,98.60
2018-05-25T05:19:03.757Z,98.50
2018-05-25T05:21:33.067Z,98.50
2018-05-25T05:24:01.161Z,98.50
2018-05-25T05:26:30.113Z,98.70
2018-05-25T05:28:58.173Z,98.70
2018-05-25T05:31:26.595Z,98.70
2018-05-25T05:33:55.585Z,98.50
2018-05-25T05:36:24.468Z,98.30
2018-05-25T05:38:53.160Z,98.50
2018-05-25T05:41:22.021Z,98.30
2018-05-25T05:43:51.048Z,98.60
2018-05-25T05:46:19.897Z,98.70
2018-05-25T05:48:48.480Z,98.30
2018-05-25T05:51:17.180Z,98.30
2018-05-25T05:53:46.092Z,98.20
2018-05-25T05:56:16.696Z,98.30
2018-05-25T05:58:45.518Z,98.30
2018-05-25T06:01:14.427Z,98.00
2018-05-25T06:03:43.887Z,98.20
2018-05-25T06:06:12.961Z,98.10
2018-05-25T06:08:41.857Z,97.90
2018-05-25T06:11:10.786Z,97.70
2018-05-25T06:13:39.893Z,97.30
2018-05-25T06:16:08.733Z,97.50
2018-05-25T06:18:36.862Z,97.30
2018-05-25T06:21:06.531Z,97.20
2018-05-25T06:23:35.462Z,97.20
2018-05-25T06:26:04.297Z,97.10
2018-05-25T06:28:33.033Z,97.10
2018-05-25T06:31:01.821Z,97.10
2018-05-25T06:33:30.876Z,96.70
2018-05-25T06:35:59.553Z,96.60
2018-05-25T06:38:27.617Z,96.90
2018-05-25T06:40:56.628Z,96.50
2018-05-25T06:43:25.414Z,96.30
2018-05-25T06:45:54.039Z,96.30
2018-05-25T06:48:22.726Z,96.10
2018-05-25T06:50:52.225Z,95.90
2018-05-25T06:53:22.517Z,96.30
2018-05-25T06:55:51.216Z,96.30
2018-05-25T06:58:20.088Z,95.70
2018-05-25T07:00:48.897Z,95.80
2018-05-25T07:03:16.949Z,95.50
2018-05-25T07:05:45.637Z,95.50
2018-05-25T07:08:14.673Z,96.10
2018-05-25T07:10:44.133Z,95.70
2018-05-25T07:13:12.851Z,95.70
2018-05-25T07:15:41.753Z,95.40
2018-05-25T07:18:10.647Z,95.60
2018-05-25T07:20:40.031Z,95.60
2018-05-25T07:23:08.090Z,95.40
2018-05-25T07:25:36.865Z,94.80
2018-05-25T07:28:05.585Z,95.30
2018-05-25T07:30:34.368Z,94.90
2018-05-25T07:33:04.311Z,95.40
2018-05-25T07:35:34.323Z,93.80
2018-05-25T07:38:03.773Z,93.80
2018-05-25T07:40:32.831Z,94.90
2018-05-25T07:43:02.563Z,94.40
2018-05-25T07:45:32.288Z,94.40
2018-05-25T07:48:01.081Z,94.20
2018-05-25T07:50:30.176Z,93.40
2018-05-25T07:52:59.520Z,93.50
2018-05-25T07:55:29.210Z,93.30
2018-05-25T07:57:57.916Z,93.30
2018-05-25T08:00:28.234Z,94.50
2018-05-25T08:02:57.109Z,94.50
2018-05-25T08:05:26.922Z,92.40
2018-05-25T08:07:54.976Z,92.40
2018-05-25T08:10:23.793Z,92.20
2018-05-25T08:12:52.486Z,92.80
2018-05-25T08:15:21.881Z,92.20
2018-05-25T08:17:51.638Z,92.20
2018-05-25T08:20:20.061Z,91.20
2018-05-25T08:22:49.873Z,90.90
2018-05-25T08:25:19.069Z,88.70
2018-05-25T08:27:47.837Z,84.30
2018-05-25T08:30:16.550Z,87.90
2018-05-25T08:32:45.612Z,85.50
2018-05-25T08:35:14.696Z,80.20
2018-05-25T08:37:43.525Z,77.60
2018-05-25T08:40:12.188Z,76.40
2018-05-25T08:42:40.927Z,78.40
2018-05-25T08:45:09.230Z,76.70
2018-05-25T08:47:38.100Z,72.50
2018-05-25T08:50:06.945Z,71.40
2018-05-25T08:52:35.637Z,68.60
2018-05-25T08:55:05.787Z,61.30
2018-05-25T08:57:35.669Z,58.10
2018-05-25T09:00:04.217Z,58.00
2018-05-25T09:02:32.262Z,58.50
2018-05-25T09:05:01.622Z,57.20
2018-05-25T09:07:30.503Z,58.60
2018-05-25T09:09:58.586Z,54.10
2018-05-25T09:12:27.342Z,51.20
2018-05-25T09:14:56.053Z,51.00
2018-05-25T09:17:24.760Z,49.90
2018-05-25T09:19:53.461Z,46.90
2018-05-25T09:22:24.137Z,46.80
2018-05-25T09:24:52.992Z,46.80
2018-05-25T09:27:23.423Z,48.80
2018-05-25T09:29:52.682Z,48.60
2018-05-25T09:32:21.980Z,44.30
2018-05-25T09:34:50.587Z,44.80
2018-05-25T09:37:20.304Z,45.40
2018-05-25T09:39:49.268Z,44.40
2018-05-25T09:42:17.941Z,44.10
2018-05-25T09:44:46.720Z,43.40
2018-05-25T09:47:16.333Z,44.40
2018-05-25T09:49:44.743Z,42.10
2018-05-25T09:52:13.715Z,43.20
2018-05-25T09:54:42.625Z,43.80
2018-05-25T09:57:10.743Z,45.50
2018-05-25T09:59:38.784Z,44.50
2018-05-25T10:02:07.547Z,44.30
2018-05-25T10:04:36.220Z,43.90
2018-05-25T10:07:05.092Z,42.30
2018-05-25T10:09:34.236Z,43.10
2018-05-25T10:12:04.404Z,37.50
2018-05-25T10:14:33.121Z,37.30
2018-05-25T10:17:03.125Z,40.40
2018-05-25T10:19:31.990Z,39.50
2018-05-25T10:22:00.800Z,40.80
2018-05-25T10:24:29.792Z,40.90
2018-05-25T10:26:58.663Z,39.90
2018-05-25T10:29:27.598Z,40.10
2018-05-25T10:31:55.677Z,39.80
2018-05-25T10:34:24.424Z,38.90
2018-05-25T10:36:52.505Z,35.30
2018-05-25T10:39:20.564Z,32.90
2018-05-25T10:41:48.972Z,33.40
2018-05-25T10:44:17.657Z,34.10
2018-05-25T10:46:46.385Z,33.80
2018-05-25T10:49:15.746Z,33.80
2018-05-25T10:51:44.417Z,33.70
2018-05-25T10:54:12.570Z,33.60
2018-05-25T10:56:41.306Z,34.30
2018-05-25T10:59:10.173Z,34.60
2018-05-25T11:01:38.869Z,34.60
2018-05-25T11:04:07.730Z,35.60
2018-05-25T11:06:36.317Z,33.70
2018-05-25T11:09:05.445Z,36.40
2018-05-25T11:11:34.097Z,36.50
2018-05-25T11:14:02.898Z,35.40
2018-05-25T11:16:31.685Z,34.00
2018-05-25T11:19:00.389Z,31.80
2018-05-25T11:21:29.178Z,32.80
2018-05-25T11:23:57.863Z,32.70
2018-05-25T11:26:26.995Z,33.40
2018-05-25T11:28:55.145Z,33.20
2018-05-25T11:31:24.001Z,32.90
2018-05-25T11:33:52.577Z,32.80
2018-05-25T11:36:21.860Z,33.20
2018-05-25T11:38:50.564Z,34.30
2018-05-25T11:41:18.628Z,31.60
2018-05-25T11:43:47.653Z,35.50
2018-05-25T11:46:16.597Z,33.20
2018-05-25T11:48:44.751Z,34.40
2018-05-25T11:51:13.581Z,33.20
2018-05-25T11:53:41.688Z,33.20
2018-05-25T11:56:09.745Z,35.20
2018-05-25T11:58:37.792Z,33.10
2018-05-25T12:01:06.833Z,31.70
2018-05-25T12:03:35.413Z,32.60
2018-05-25T12:06:04.013Z,31.40
2018-05-25T12:08:33.686Z,30.40
2018-05-25T12:11:02.401Z,31.10
2018-05-25T12:13:31.233Z,34.60
2018-05-25T12:15:59.654Z,34.60
2018-05-25T12:18:27.733Z,34.50
2018-05-25T12:20:55.805Z,33.20
2018-05-25T12:23:24.437Z,34.80
2018-05-25T12:25:53.453Z,32.70
2018-05-25T12:28:21.526Z,34.20
2018-05-25T12:30:50.533Z,37.30
2018-05-25T12:33:18.577Z,37.00
2018-05-25T12:35:47.276Z,40.40
2018-05-25T12:38:15.984Z,40.80
2018-05-25T12:40:44.061Z,38.40
2018-05-25T12:43:12.130Z,38.10
2018-05-25T12:45:41.555Z,37.90
2018-05-25T12:48:10.373Z,36.30
2018-05-25T12:50:38.723Z,36.30
2018-05-25T12:53:08.604Z,37.50
2018-05-25T12:55:37.351Z,37.60
2018-05-25T12:58:06.281Z,35.10
2018-05-25T13:00:34.324Z,34.80
2018-05-25T13:03:03.010Z,34.10
2018-05-25T13:05:31.093Z,36.40
2018-05-25T13:07:59.153Z,38.00
2018-05-25T13:10:29.065Z,39.80
2018-05-25T13:12:57.136Z,40.60
2018-05-25T13:15:25.200Z,36.40
2018-05-25T13:17:53.628Z,38.40
2018-05-25T13:20:22.509Z,37.20
2018-05-25T13:22:51.472Z,38.10
2018-05-25T13:25:20.185Z,37.70
2018-05-25T13:27:48.945Z,35.40
2018-05-25T13:30:18.284Z,39.50
2018-05-25T13:32:47.752Z,37.50
2018-05-25T13:35:15.812Z,35.30
2018-05-25T13:37:44.409Z,37.60
2018-05-25T13:40:13.327Z,37.30
2018-05-25T13:42:41.999Z,40.00
2018-05-25T13:45:10.053Z,40.90
2018-05-25T13:47:39.077Z,38.20
2018-05-25T13:50:08.185Z,37.60
2018-05-25T13:52:36.225Z,38.90
2018-05-25T13:55:04.285Z,39.40
2018-05-25T13:57:32.705Z,39.20
2018-05-25T14:00:02.285Z,42.50
2018-05-25T14:02:30.345Z,42.50
2018-05-25T14:04:59.249Z,42.20
2018-05-25T14:07:27.351Z,42.10
2018-05-25T14:09:56.183Z,45.90
2018-05-25T14:12:25.013Z,45.90
2018-05-25T14:14:53.840Z,45.10
2018-05-25T14:17:22.693Z,45.70
2018-05-25T14:19:50.828Z,45.70
2018-05-25T14:22:18.864Z,45.60
2018-05-25T14:24:47.801Z,46.90
2018-05-25T14:27:15.861Z,45.70
2018-05-25T14:29:43.934Z,45.10
2018-05-25T14:32:12.861Z,45.80
2018-05-25T14:34:40.920Z,43.30
2018-05-25T14:37:09.006Z,44.20
2018-05-25T14:39:37.650Z,43.60
2018-05-25T14:42:05.733Z,45.10
2018-05-25T14:44:33.796Z,43.50
2018-05-25T14:47:02.595Z,43.00
2018-05-25T14:49:30.676Z,44.50
2018-05-25T14:51:58.771Z,43.80
2018-05-25T14:54:27.429Z,43.50
2018-05-25T14:56:55.495Z,45.30
2018-05-25T14:59:24.517Z,46.00
2018-05-25T15:01:53.087Z,47.50
2018-05-25T15:04:21.181Z,46.30
2018-05-25T15:06:49.253Z,42.30
2018-05-25T15:09:17.319Z,42.80
2018-05-25T15:11:46.173Z,42.50
2018-05-25T15:14:14.244Z,43.60
2018-05-25T15:16:42.329Z,45.50
2018-05-25T15:19:10.452Z,44.10
2018-05-25T15:21:39.302Z,44.20
2018-05-25T15:24:07.349Z,44.20
2018-05-25T15:26:35.461Z,46.00
2018-05-25T15:29:03.533Z,49.00
2018-05-25T15:31:31.605Z,47.70
2018-05-25T15:33:59.837Z,47.70
2018-05-25T15:36:28.009Z,47.20
2018-05-25T15:38:56.097Z,49.10
2018-05-25T15:41:24.164Z,47.40
2018-05-25T15:43:52.253Z,48.80
2018-05-25T15:46:20.332Z,49.60
2018-05-25T15:48:48.677Z,48.40
2018-05-25T15:51:16.734Z,47.50
2018-05-25T15:53:44.810Z,45.90
2018-05-25T15:56:13.126Z,46.90
2018-05-25T15:58:41.198Z,48.20
2018-05-25T16:01:09.880Z,47.80
2018-05-25T16:03:37.960Z,49.70
2018-05-25T16:06:07.153Z,48.90
2018-05-25T16:08:35.227Z,49.80
2018-05-25T16:11:03.276Z,49.70
2018-05-25T16:13:31.645Z,48.60
2018-05-25T16:15:59.716Z,47.70
2018-05-25T16:18:27.777Z,49.40
2018-05-25T16:20:55.859Z,49.40
2018-05-25T16:23:23.949Z,49.60
2018-05-25T16:25:52.559Z,50.00
2018-05-25T16:28:21.320Z,49.50
2018-05-25T16:30:49.381Z,51.50
2018-05-25T16:33:18.396Z,52.30
2018-05-25T16:35:47.256Z,51.90
2018-05-25T16:38:15.320Z,52.20
2018-05-25T16:40:43.396Z,52.60
2018-05-25T16:43:11.481Z,52.70
2018-05-25T16:45:39.540Z,53.60
2018-05-25T16:48:07.845Z,53.80
2018-05-25T16:50:36.703Z,55.40
2018-05-25T16:53:04.765Z,55.40
2018-05-25T16:55:33.185Z,55.60
2018-05-25T16:58:01.257Z,58.40
2018-05-25T17:00:29.312Z,57.90
2018-05-25T17:02:58.201Z,55.80
2018-05-25T17:05:26.293Z,53.50
2018-05-25T17:07:54.364Z,54.20
2018-05-25T17:10:23.337Z,54.40
2018-05-25T17:12:52.427Z,52.90
2018-05-25T17:15:20.513Z,54.20
2018-05-25T17:17:48.576Z,53.10
2018-05-25T17:20:16.961Z,55.00
2018-05-25T17:22:45.034Z,56.50
2018-05-25T17:25:13.115Z,57.30
2018-05-25T17:27:41.509Z,58.00
2018-05-25T17:30:10.346Z,57.60
2018-05-25T17:32:38.417Z,57.50
2018-05-25T17:35:06.737Z,56.10
2018-05-25T17:37:35.825Z,56.80
2018-05-25T17:40:03.901Z,57.50
2018-05-25T17:42:31.992Z,58.70
2018-05-25T17:45:00.820Z,57.50
2018-05-25T17:47:28.917Z,57.40
2018-05-25T17:49:56.985Z,56.30
2018-05-25T17:52:25.073Z,56.70
2018-05-25T17:54:53.137Z,58.00
2018-05-25T17:57:21.421Z,57.70
2018-05-25T17:59:50.189Z,57.30
2018-05-25T18:02:18.260Z,57.70
2018-05-25T18:04:46.336Z,57.30
2018-05-25T18:07:14.445Z,58.60
2018-05-25T18:09:43.283Z,58.10
2018-05-25T18:12:11.347Z,58.10
2018-05-25T18:14:39.473Z,58.90
2018-05-25T18:17:07.517Z,59.50
2018-05-25T18:19:35.576Z,59.70
2018-05-25T18:22:04.067Z,59.30
2018-05-25T18:24:32.349Z,61.20
2018-05-25T18:27:00.405Z,62.10
2018-05-25T18:29:28.501Z,64.00
2018-05-25T18:31:56.589Z,64.20
2018-05-25T18:34:24.657Z,64.10
2018-05-25T18:36:53.850Z,68.40
2018-05-25T18:39:21.921Z,68.40
2018-05-25T18:41:49.989Z,70.40
2018-05-25T18:44:18.365Z,72.70
2018-05-25T18:46:46.449Z,75.50
2018-05-25T18:49:14.569Z,76.70
2018-05-25T18:51:42.958Z,78.00
2018-05-25T18:54:11.038Z,78.80
2018-05-25T18:56:39.936Z,79.20
2018-05-25T18:59:08.001Z,79.60
2018-05-25T19:01:36.114Z,80.90
2018-05-25T19:04:04.981Z,81.90
2018-05-25T19:06:33.053Z,81.80
2018-05-25T19:09:01.126Z,82.60
2018-05-25T19:11:29.213Z,82.50
2018-05-25T19:13:57.256Z,83.60
2018-05-25T19:16:25.341Z,84.20
2018-05-25T19:18:53.899Z,85.60
2018-05-25T19:21:22.175Z,84.70
2018-05-25T19:23:50.253Z,85.50
2018-05-25T19:26:18.665Z,85.90
2018-05-25T19:28:46.714Z,85.80
2018-05-25T19:31:14.785Z,87.10
2018-05-25T19:33:43.154Z,87.00
2018-05-25T19:36:11.222Z,86.80
2018-05-25T19:38:39.341Z,87.10
2018-05-25T19:41:08.029Z,88.00
2018-05-25T19:43:36.873Z,88.00
2018-05-25T19:46:04.932Z,87.90
2018-05-25T19:48:33.017Z,88.40
2018-05-25T19:51:01.118Z,89.30
2018-05-25T19:53:29.189Z,88.90
2018-05-25T19:55:57.273Z,88.60
2018-05-25T19:58:26.133Z,90.10
2018-05-25T20:00:54.194Z,89.90
2018-05-25T20:03:22.717Z,90.10
2018-05-25T20:05:51.640Z,90.20
2018-05-25T20:08:19.715Z,90.20
2018-05-25T20:10:47.821Z,90.30
2018-05-25T20:13:16.615Z,90.20
2018-05-25T20:15:44.705Z,90.40
2018-05-25T20:18:13.533Z,90.00
2018-05-25T20:20:41.953Z,90.00
2018-05-25T20:23:10.072Z,90.20
2018-05-25T20:25:38.923Z,90.50
2018-05-25T20:28:06.981Z,90.50
2018-05-25T20:30:35.057Z,90.70
2018-05-25T20:33:03.159Z,90.40
2018-05-25T20:35:32.005Z,90.40
2018-05-25T20:38:00.094Z,90.40
2018-05-25T20:40:28.185Z,90.80
2018-05-25T20:42:57.041Z,90.80
2018-05-25T20:45:25.097Z,90.80
2018-05-25T20:47:53.477Z,90.70
2018-05-25T20:50:21.589Z,90.80
2018-05-25T20:52:49.632Z,90.90
2018-05-25T20:55:18.563Z,91.30
2018-05-25T20:57:47.413Z,91.20
2018-05-25T21:00:15.513Z,91.20
2018-05-25T21:02:43.597Z,91.20
2018-05-25T21:05:12.425Z,91.60
2018-05-25T21:07:40.517Z,91.60
2018-05-25T21:10:08.781Z,91.70
2018-05-25T21:12:36.865Z,91.80
2018-05-25T21:15:05.092Z,91.90
2018-05-25T21:17:33.158Z,92.10
2018-05-25T21:20:02.017Z,92.20
2018-05-25T21:22:30.109Z,92.20
2018-05-25T21:24:59.306Z,92.40
2018-05-25T21:27:28.136Z,92.90
2018-05-25T21:29:57.257Z,92.60
2018-05-25T21:32:25.326Z,92.80
2018-05-25T21:34:53.384Z,92.80
2018-05-25T21:37:21.783Z,92.90
2018-05-25T21:39:49.833Z,92.90
2018-05-25T21:42:17.897Z,92.90
2018-05-25T21:44:45.969Z,92.80
2018-05-25T21:47:14.062Z,92.80
2018-05-25T21:49:42.149Z,92.70
2018-05-25T21:52:10.328Z,92.80
2018-05-25T21:54:38.408Z,92.90
2018-05-25T21:57:06.493Z,92.90
2018-05-25T21:59:35.356Z,93.20
2018-05-25T22:02:03.449Z,93.20
2018-05-25T22:04:32.301Z,93.60
2018-05-25T22:07:00.377Z,93.60
2018-05-25T22:09:28.433Z,93.70
2018-05-25T22:11:56.500Z,93.90
2018-05-25T22:14:24.809Z,94.00
2018-05-25T22:16:52.921Z,93.90
2018-05-25T22:19:21.041Z,94.00
2018-05-25T22:21:49.140Z,94.00
2018-05-25T22:24:17.949Z,94.00
2018-05-25T22:26:46.051Z,94.00
2018-05-25T22:29:14.453Z,94.00
2018-05-25T22:31:42.705Z,94.30
2018-05-25T22:34:10.776Z,94.30
2018-05-25T22:36:38.857Z,94.50
2018-05-25T22:39:06.929Z,94.50
2018-05-25T22:41:35.017Z,94.50
2018-05-25T22:44:04.229Z,94.40
2018-05-25T22:46:32.273Z,94.50
2018-05-25T22:49:00.341Z,94.60
2018-05-25T22:51:28.748Z,94.70
2018-05-25T22:53:56.821Z,94.80
2018-05-25T22:56:24.872Z,94.70
2018-05-25T22:58:53.445Z,94.50
2018-05-25T23:01:21.517Z,94.50
2018-05-25T23:03:49.617Z,94.70
2018-05-25T23:06:17.997Z,95.00
2018-05-25T23:08:46.245Z,95.20
2018-05-25T23:11:14.321Z,94.90
2018-05-25T23:13:42.400Z,94.80
2018-05-25T23:16:10.485Z,95.10
2018-05-25T23:18:38.591Z,95.10
2018-05-25T23:21:06.909Z,95.10
2018-05-25T23:23:34.977Z,95.00
2018-05-25T23:26:03.044Z,94.80
2018-05-25T23:28:31.152Z,95.00
2018-05-25T23:31:00.245Z,95.20
2018-05-25T23:33:28.329Z,95.40
2018-05-25T23:35:56.397Z,95.50
2018-05-25T23:38:24.455Z,95.40
2018-05-25T23:40:52.545Z,95.40
2018-05-25T23:43:20.585Z,95.40
2018-05-25T23:45:48.664Z,95.00
2018-05-25T23:48:16.745Z,95.20
2018-05-25T23:50:44.828Z,94.80
2018-05-25T23:53:13.196Z,94.90
2018-05-25T23:55:41.313Z,95.10
2018-05-25T23:58:09.353Z,95.30
